עמוד ראשי
METAR-TAF:

METAR-TAF

שדות תעופה :

Riberalta, בוליביה

קו רוחב: 11-00S, קו אורך: 066-07W, גובה: 141מטר

תצפית מזג אוויר נוכחית

הדו"ח נערך לפני 14 שעות ו 16דקות, בשעה 20:00 UTC
רוח 6קשר מכיוון צפון
טמפרטורת 33 צלסיוס
לחות 63%
לחץ 1009 hPa
ראות 10 קילומטר או יותר
עננים פזורים בגובה 1700רגל
מעט עננים בגובה 2000רגל , קומולונימבוס.
עננים בינוניים בגובה 20000רגל

METAR: SLRI 112000Z 35006KT 9999 SCT017 FEW020CB BKN200 33/25 Q1009

זמן: 06:16 (10:16 UTC)


TAF: חסר

תצפיות ותחזיות מזג אוויר לגבי יותר מ- 4,000 שדות תעופה ברחבי העולם. דוחות METAR ו- TAF.

התחנות הזמינות מסומנות בנקודות צהובות ואדומות על גבי המפה.

העבר את העכבר לנקודה הצבעונית על מנת לראות את שם התחנה.

לאחר מכן, לחץ כדי לראות את תוכן ואת תחזיות מזג האוויר.

כדי לשנות את המפה: לחץ על הכפתורים הירוקים עם הפלוס השחור כדי להתקרב; על הכפתור הירוק עם המקף כדי להתרחק; או בחיצים הירוקים למפות סמוכות.


METAR-TAF: